Terminal Aerodrome Forecast
Issued by NWS Billings, MT

Home | Current Version | Previous Version | Text Only | Print | Product List | Glossary Off
Versions: 1 2 3 4 5 6 7 8 9 10 11 12 13 14 15 16 17 18 19

000
FTUS45 KBYZ 270512 AAA
TAFMLS
TAF AMD
KMLS 270512Z 2705/2724 15017G26KT P6SM SCT150
     FM271200 16012KT P6SM SCT150
     FM271800 31015KT P6SM VCTS SCT080CB=

USA.gov is the U.S. government's official web portal to all federal, state and local government web resources and services.